Time;durP1;ratioP1;P1;durP2;ratioP2;P2;SDS_P1;SDS_P2;PMS_P1;PMS_P2;Temp;Humidity;BMP_temperature;BMP_pressure;BME280_temperature;BME280_humidity;BME280_pressure;Samples;Min_cycle;Max_cycle;Signal;HPM_P1;HPM_P2
2022/09/06 00:00:26;;;;;;;0.30;0.30;;;;;;;19.71;92.65;100137.75;5094772;28;20606;-69
2022/09/06 00:02:53;;;;;;;0.40;0.40;;;;;;;19.72;92.37;100142.84;5094389;28;20200;-69
2022/09/06 00:05:20;;;;;;;0.30;0.30;;;;;;;19.72;92.74;100137.66;5094608;28;20217;-69
2022/09/06 00:07:47;;;;;;;0.33;0.33;;;;;;;19.74;92.65;100146.19;5094472;28;20207;-69
2022/09/06 00:10:14;;;;;;;0.30;0.30;;;;;;;19.75;92.22;100147.03;5094753;28;20199;-69
2022/09/06 00:12:41;;;;;;;0.40;0.40;;;;;;;19.72;92.23;100145.44;5095794;28;20250;-68
2022/09/06 00:15:10;;;;;;;0.40;0.40;;;;;;;19.69;92.08;100137.81;5094576;28;20223;-69
2022/09/06 00:17:37;;;;;;;0.40;0.40;;;;;;;19.68;91.60;100130.09;5094374;28;20196;-69
2022/09/06 00:20:07;;;;;;;0.40;0.40;;;;;;;19.75;91.51;100147.88;5094294;28;20585;-69
2022/09/06 00:22:35;;;;;;;0.40;0.40;;;;;;;19.81;91.11;100152.75;5094709;28;20594;-69
2022/09/06 00:25:02;;;;;;;0.43;0.43;;;;;;;19.81;91.06;100151.91;5093851;28;20303;-69
2022/09/06 00:27:29;;;;;;;0.30;0.30;;;;;;;19.78;90.54;100146.88;5094367;28;20240;-69
2022/09/06 00:29:55;;;;;;;0.40;0.40;;;;;;;19.75;91.06;100145.28;5090419;28;20228;-69
2022/09/06 00:32:24;;;;;;;0.40;0.40;;;;;;;19.70;91.29;100155.13;5094240;28;20270;-69
2022/09/06 00:34:51;;;;;;;0.40;0.40;;;;;;;19.69;91.26;100148.22;5093992;28;20200;-68
2022/09/06 00:37:18;;;;;;;0.30;0.30;;;;;;;19.69;91.44;100153.44;5094454;28;20687;-69
2022/09/06 00:39:44;;;;;;;0.40;0.40;;;;;;;19.65;91.15;100151.06;5093929;28;20205;-69
2022/09/06 00:42:12;;;;;;;0.47;0.47;;;;;;;19.61;91.22;100155.59;5093916;28;20199;-69
2022/09/06 00:44:40;;;;;;;0.40;0.40;;;;;;;19.62;91.51;100151.25;5093657;28;20219;-69
2022/09/06 00:47:08;;;;;;;0.40;0.40;;;;;;;19.61;91.69;100155.59;5093829;28;20662;-69
2022/09/06 00:49:39;;;;;;;0.30;0.30;;;;;;;19.60;91.64;100153.94;5094138;28;20283;-69
2022/09/06 00:52:11;;;;;;;0.43;0.43;;;;;;;19.56;91.89;100149.84;5093477;28;20207;-68
2022/09/06 00:54:39;;;;;;;0.30;0.30;;;;;;;19.52;92.14;100145.72;5093949;28;20188;-69
2022/09/06 00:57:07;;;;;;;0.30;0.30;;;;;;;19.50;92.21;100152.78;5094028;28;20665;-69
2022/09/06 00:59:36;;;;;;;0.30;0.30;;;;;;;19.45;92.37;100152.16;5090562;28;20203;-68
2022/09/06 01:02:04;;;;;;;0.40;0.40;;;;;;;19.39;92.33;100136.88;5093529;28;20200;-69
2022/09/06 01:04:32;;;;;;;0.30;0.30;;;;;;;19.42;92.25;100149.72;5093810;28;20269;-68
2022/09/06 01:07:06;;;;;;;0.30;0.30;;;;;;;19.39;92.31;100157.66;5093550;28;20203;-68
2022/09/06 01:09:47;;;;;;;0.40;0.40;;;;;;;19.37;92.50;100151.72;5093442;28;20235;-69
2022/09/06 01:12:27;;;;;;;0.30;0.30;;;;;;;19.35;93.03;100149.19;5089737;28;20229;-69
2022/09/06 01:15:07;;;;;;;0.30;0.30;;;;;;;19.33;93.40;100139.81;5090901;28;20277;-68
2022/09/06 01:17:54;;;;;;;0.30;0.30;;;;;;;19.30;93.02;100145.19;5093244;28;20206;-68
2022/09/06 01:20:47;;;;;;;0.30;0.30;;;;;;;19.28;93.17;100144.44;5092889;28;20207;-68
2022/09/06 01:23:58;;;;;;;0.33;0.33;;;;;;;19.28;93.17;100152.22;5081850;28;20202;-68
2022/09/06 01:26:57;;;;;;;0.40;0.40;;;;;;;19.23;93.21;100149.03;5088304;28;20200;-68
2022/09/06 01:29:32;;;;;;;0.47;0.47;;;;;;;19.11;94.39;100139.28;5093109;28;20208;-68
2022/09/06 01:32:08;;;;;;;0.33;0.33;;;;;;;19.06;94.56;100136.09;5089106;28;20210;-68
2022/09/06 01:34:42;;;;;;;0.30;0.30;;;;;;;19.03;94.39;100131.88;5090670;28;20191;-68
2022/09/06 01:37:12;;;;;;;0.40;0.40;;;;;;;19.04;94.72;100132.72;5092745;28;20200;-68
2022/09/06 01:39:40;;;;;;;0.40;0.40;;;;;;;19.04;94.67;100137.94;5092869;28;20245;-68
2022/09/06 01:42:12;;;;;;;0.40;0.40;;;;;;;19.04;94.80;100122.34;5093207;28;20195;-68
2022/09/06 01:44:44;;;;;;;0.30;0.30;;;;;;;19.07;94.84;100123.00;5091369;28;20224;-68
2022/09/06 01:47:24;;;;;;;0.70;0.70;;;;;;;19.00;94.59;100105.25;5092782;28;20203;-68
2022/09/06 01:50:06;;;;;;;0.30;0.30;;;;;;;19.07;94.41;100119.56;5092923;28;20590;-68
2022/09/06 01:52:42;;;;;;;0.40;0.40;;;;;;;19.06;94.31;100117.91;5100372;28;20204;-68
2022/09/06 01:55:21;;;;;;;0.40;0.40;;;;;;;19.08;94.14;100116.06;5084637;28;20195;-70
2022/09/06 01:58:00;;;;;;;0.37;0.37;;;;;;;19.05;93.60;100109.28;5090405;28;20285;-68
2022/09/06 02:00:28;;;;;;;0.40;0.40;;;;;;;18.95;93.95;100107.25;5089891;28;20196;-68
2022/09/06 02:03:06;;;;;;;0.40;0.40;;;;;;;18.87;93.97;100105.88;5092590;28;20237;-68
2022/09/06 02:05:40;;;;;;;0.40;0.40;;;;;;;18.78;93.73;100095.97;5092390;28;20226;-68
2022/09/06 02:08:12;;;;;;;0.37;0.37;;;;;;;18.81;93.78;100100.16;5092400;28;20256;-68
2022/09/06 02:10:45;;;;;;;0.40;0.40;;;;;;;18.77;93.89;100103.88;5091973;28;20223;-68
2022/09/06 02:13:15;;;;;;;0.30;0.30;;;;;;;18.73;94.35;100103.19;5086850;28;20203;-68
2022/09/06 02:15:51;;;;;;;0.33;0.33;;;;;;;18.70;94.71;100098.16;5092306;28;20668;-68
2022/09/06 02:18:23;;;;;;;0.50;0.50;;;;;;;18.64;95.04;100095.03;5091968;28;20204;-68
2022/09/06 02:20:52;;;;;;;0.40;0.40;;;;;;;18.60;95.13;100102.16;5092079;28;20692;-68
2022/09/06 02:23:23;;;;;;;0.30;0.30;;;;;;;18.58;95.28;100098.78;5086961;28;20203;-68
2022/09/06 02:25:53;;;;;;;0.40;0.40;;;;;;;18.57;94.84;100117.88;5091976;28;20691;-68
2022/09/06 02:28:21;;;;;;;0.37;0.37;;;;;;;18.56;94.67;100118.78;5092188;28;20191;-68
2022/09/06 02:30:53;;;;;;;0.50;0.50;;;;;;;18.52;94.88;100114.66;5092362;28;20231;-68
2022/09/06 02:33:21;;;;;;;0.40;0.40;;;;;;;18.49;94.21;100104.41;5091848;28;20203;-68
2022/09/06 02:35:51;;;;;;;0.50;0.50;;;;;;;18.43;94.13;100107.31;5092024;28;20199;-68
2022/09/06 02:38:21;;;;;;;0.60;0.60;;;;;;;18.40;94.22;100102.28;5091847;28;20207;-68
2022/09/06 02:40:48;;;;;;;0.40;0.40;;;;;;;18.37;94.19;100105.03;5091809;28;20244;-68
2022/09/06 02:43:15;;;;;;;0.50;0.50;;;;;;;18.29;94.79;100107.16;5091761;28;20199;-68
2022/09/06 02:45:42;;;;;;;0.40;0.40;;;;;;;18.23;95.16;100091.91;5091799;28;20222;-68
2022/09/06 02:48:10;;;;;;;0.40;0.40;;;;;;;18.21;95.30;100099.78;5082310;28;20195;-68
2022/09/06 02:50:37;;;;;;;0.40;0.40;;;;;;;18.18;95.61;100097.34;5092260;28;20269;-68
2022/09/06 02:53:06;;;;;;;0.50;0.50;;;;;;;18.19;95.48;100098.19;5092025;28;20191;-68
2022/09/06 02:55:33;;;;;;;0.50;0.50;;;;;;;18.10;95.19;100085.66;5093800;28;20214;-68
2022/09/06 02:58:00;;;;;;;0.40;0.40;;;;;;;18.16;95.16;100100.91;5100664;28;20200;-68
2022/09/06 03:00:27;;;;;;;0.40;0.40;;;;;;;18.16;95.30;100103.50;5091766;28;20587;-68
2022/09/06 03:02:54;;;;;;;0.30;0.30;;;;;;;18.13;95.35;100103.66;5091636;28;20199;-69
2022/09/06 03:05:23;;;;;;;0.40;0.40;;;;;;;18.11;95.21;100108.09;5091512;28;20218;-68
2022/09/06 03:07:50;;;;;;;0.40;0.40;;;;;;;18.12;95.35;100125.38;5091639;28;20667;-68
2022/09/06 03:10:17;;;;;;;0.40;0.40;;;;;;;18.09;95.26;100120.31;5091475;28;20191;-68
2022/09/06 03:12:44;;;;;;;0.30;0.30;;;;;;;18.08;95.28;100118.63;5091894;28;20210;-68
2022/09/06 03:15:12;;;;;;;0.30;0.30;;;;;;;18.06;95.46;100120.47;5091579;28;20740;-68
2022/09/06 03:17:39;;;;;;;0.43;0.43;;;;;;;18.01;95.62;100127.63;5091284;28;20590;-68
2022/09/06 03:20:08;;;;;;;0.33;0.33;;;;;;;17.99;96.07;100134.66;5091616;28;20195;-68
2022/09/06 03:22:38;;;;;;;0.47;0.47;;;;;;;17.89;96.36;100117.84;5091408;28;20287;-68
2022/09/06 03:25:05;;;;;;;0.37;0.37;;;;;;;17.93;96.83;100129.78;5091561;28;20656;-68
2022/09/06 03:27:32;;;;;;;0.40;0.40;;;;;;;17.89;97.30;100129.09;5091329;28;20199;-68
2022/09/06 03:29:59;;;;;;;0.40;0.40;;;;;;;17.81;97.20;100110.44;5091682;28;20206;-68
2022/09/06 03:32:26;;;;;;;0.50;0.50;;;;;;;17.88;96.98;100121.34;5091434;28;20199;-68
2022/09/06 03:34:52;;;;;;;0.50;0.50;;;;;;;17.86;97.38;100118.00;5091440;28;20192;-68
2022/09/06 03:37:19;;;;;;;0.50;0.50;;;;;;;17.83;97.16;100129.38;5091391;28;20200;-68
2022/09/06 03:39:48;;;;;;;0.50;0.50;;;;;;;17.80;97.27;100122.56;5091547;28;20276;-68
2022/09/06 03:42:15;;;;;;;0.40;0.40;;;;;;;17.80;97.69;100119.97;5091473;28;20663;-68
2022/09/06 03:44:42;;;;;;;0.33;0.33;;;;;;;17.81;97.45;100118.22;5091413;28;20305;-68
2022/09/06 03:47:09;;;;;;;0.40;0.40;;;;;;;17.80;97.19;100124.34;5091630;28;20195;-68
2022/09/06 03:49:35;;;;;;;0.50;0.50;;;;;;;17.70;97.02;100116.16;5091536;28;20244;-68
2022/09/06 03:52:03;;;;;;;0.37;0.37;;;;;;;17.78;96.97;100137.38;5091471;28;20199;-68
2022/09/06 03:54:29;;;;;;;1.03;1.03;;;;;;;17.79;96.83;100138.22;5091372;28;20196;-68
2022/09/06 03:56:58;;;;;;;0.40;0.40;;;;;;;17.79;96.83;100127.84;5091372;28;20205;-68
2022/09/06 03:59:24;;;;;;;0.47;0.47;;;;;;;17.79;96.99;100133.03;5090980;28;20206;-68
2022/09/06 04:01:51;;;;;;;0.30;0.30;;;;;;;17.78;97.32;100131.34;5091228;28;20610;-68
2022/09/06 04:04:18;;;;;;;0.40;0.40;;;;;;;17.75;97.51;100134.94;5091455;28;20674;-68
2022/09/06 04:06:45;;;;;;;0.50;0.50;;;;;;;17.71;97.74;100135.97;5091322;28;20203;-67
2022/09/06 04:09:11;;;;;;;0.30;0.30;;;;;;;17.70;98.00;100141.25;5091444;28;20579;-68
2022/09/06 04:11:38;;;;;;;0.37;0.37;;;;;;;17.60;98.19;100130.47;5091230;28;20587;-68
2022/09/06 04:14:06;;;;;;;0.50;0.50;;;;;;;17.62;98.61;100128.63;5091198;28;20199;-68
2022/09/06 04:16:33;;;;;;;0.43;0.43;;;;;;;17.69;98.85;100148.19;5091289;28;20192;-68
2022/09/06 04:19:01;;;;;;;0.40;0.40;;;;;;;17.69;99.12;100150.78;5092275;28;20191;-68
2022/09/06 04:21:28;;;;;;;0.30;0.30;;;;;;;17.68;99.23;100154.28;5095179;28;20207;-68
2022/09/06 04:23:55;;;;;;;0.40;0.40;;;;;;;17.60;99.32;100142.59;5094664;28;20195;-68
2022/09/06 04:26:21;;;;;;;0.40;0.40;;;;;;;17.65;99.71;100151.84;5094503;28;20211;-68
2022/09/06 04:28:48;;;;;;;0.40;0.40;;;;;;;17.67;100.00;100150.00;5094890;28;20256;-68
2022/09/06 04:31:16;;;;;;;0.40;0.40;;;;;;;17.53;100.00;100126.44;5094594;28;20629;-68
2022/09/06 04:33:43;;;;;;;0.30;0.30;;;;;;;17.76;100.00;100153.94;5094632;28;20667;-69
2022/09/06 04:36:11;;;;;;;0.47;0.47;;;;;;;17.84;100.00;100152.63;5094577;28;20195;-68
2022/09/06 04:38:39;;;;;;;0.47;0.47;;;;;;;17.95;100.00;100148.69;5094658;28;20238;-68
2022/09/06 04:41:07;;;;;;;0.50;0.50;;;;;;;18.07;100.00;100148.94;5094354;28;20199;-68
2022/09/06 04:43:34;;;;;;;0.40;0.40;;;;;;;18.22;100.00;100142.16;5094498;28;20208;-68
2022/09/06 04:46:06;;;;;;;0.40;0.40;;;;;;;18.37;100.00;100141.38;5094366;28;20218;-68
2022/09/06 04:48:34;;;;;;;0.30;0.30;;;;;;;18.55;98.21;100142.22;5094495;28;20682;-68
2022/09/06 04:51:01;;;;;;;0.50;0.50;;;;;;;18.66;98.33;100142.53;5094423;28;20593;-69
2022/09/06 04:53:28;;;;;;;0.30;0.30;;;;;;;18.77;98.30;100150.63;5094129;28;20199;-69
2022/09/06 04:55:57;;;;;;;0.50;0.50;;;;;;;18.91;97.58;100142.09;5082195;28;20199;-69
2022/09/06 04:58:24;;;;;;;0.40;0.40;;;;;;;19.03;97.16;100144.88;5086831;28;20587;-68
2022/09/06 05:00:50;;;;;;;0.50;0.50;;;;;;;19.25;95.93;100142.00;5094140;28;20194;-69
2022/09/06 05:03:18;;;;;;;0.43;0.43;;;;;;;19.43;95.10;100135.81;5093788;28;20675;-69
2022/09/06 05:05:46;;;;;;;0.27;0.27;;;;;;;19.60;94.57;100143.53;5093836;28;20273;-69
2022/09/06 05:08:13;;;;;;;0.30;0.30;;;;;;;19.81;93.49;100146.69;5093861;28;20214;-69
2022/09/06 05:10:40;;;;;;;0.30;0.30;;;;;;;20.04;92.62;100148.84;5092892;28;20669;-70
2022/09/06 05:13:07;;;;;;;0.30;0.30;;;;;;;20.27;91.64;100139.72;5089167;28;20207;-67
2022/09/06 05:15:34;;;;;;;0.30;0.30;;;;;;;20.50;90.58;100141.84;5092202;28;20688;-70
2022/09/06 05:18:05;;;;;;;0.30;0.30;;;;;;;20.73;89.03;100132.66;5091586;28;20249;-69
2022/09/06 05:20:32;;;;;;;0.30;0.30;;;;;;;20.84;87.64;100119.81;5091417;28;20238;-69
2022/09/06 05:23:01;;;;;;;0.30;0.30;;;;;;;21.13;86.95;100138.94;5091905;28;20203;-68
2022/09/06 05:25:27;;;;;;;0.40;0.40;;;;;;;21.33;87.41;100144.56;5095152;28;20264;-66
2022/09/06 05:27:54;;;;;;;0.30;0.30;;;;;;;21.59;86.33;100142.91;5092405;28;20198;-67
2022/09/06 05:30:22;;;;;;;0.40;0.40;;;;;;;21.72;84.49;100143.81;5092022;28;20757;-67
2022/09/06 05:32:48;;;;;;;0.30;0.30;;;;;;;21.72;83.86;100146.41;5093665;28;20195;-67
2022/09/06 05:35:15;;;;;;;0.27;0.27;;;;;;;21.85;85.45;100141.25;5092461;28;20255;-67
2022/09/06 05:37:42;;;;;;;0.30;0.30;;;;;;;21.97;82.93;100141.31;5092054;28;20210;-67
2022/09/06 05:40:11;;;;;;;0.37;0.37;;;;;;;22.07;84.08;100140.72;5092656;28;20252;-68
2022/09/06 05:42:39;;;;;;;0.20;0.20;;;;;;;22.22;84.00;100139.72;5090627;28;20202;-67
2022/09/06 05:45:07;;;;;;;0.30;0.30;;;;;;;22.47;83.45;100144.97;5091819;28;20203;-68
2022/09/06 05:47:34;;;;;;;0.30;0.30;;;;;;;22.63;81.99;100145.59;5092286;28;20206;-68
2022/09/06 05:50:01;;;;;;;0.30;0.30;;;;;;;22.75;80.09;100149.19;5091251;28;20203;-68
2022/09/06 05:52:28;;;;;;;0.20;0.20;;;;;;;22.92;79.67;100141.88;5091609;28;20203;-68
2022/09/06 05:54:55;;;;;;;0.20;0.20;;;;;;;23.07;79.40;100144.38;5091797;28;20203;-67
2022/09/06 05:57:23;;;;;;;0.30;0.30;;;;;;;23.28;76.94;100145.47;5091565;28;20192;-68
2022/09/06 05:59:52;;;;;;;0.23;0.23;;;;;;;23.35;77.11;100136.25;5091413;28;20211;-68
2022/09/06 06:02:19;;;;;;;0.20;0.20;;;;;;;23.48;77.35;100134.47;5090895;28;20568;-68
2022/09/06 06:04:46;;;;;;;0.20;0.20;;;;;;;23.70;76.21;100131.97;5091227;28;20211;-69
2022/09/06 06:07:13;;;;;;;1.50;1.40;;;;;;;23.71;76.36;100131.03;5091777;28;20247;-68
2022/09/06 06:09:40;;;;;;;0.30;0.30;;;;;;;23.80;75.31;100130.34;5089783;28;20690;-68
2022/09/06 06:12:07;;;;;;;0.20;0.20;;;;;;;23.92;76.16;100133.84;5089202;28;20784;-69
2022/09/06 06:14:35;;;;;;;0.30;0.30;;;;;;;24.08;74.66;100133.53;5091400;28;20706;-69
2022/09/06 06:17:02;;;;;;;0.23;0.23;;;;;;;24.20;72.90;100132.69;5090534;28;20257;-69
2022/09/06 06:19:30;;;;;;;0.30;0.30;;;;;;;24.27;72.04;100128.63;5089129;28;20221;-69
2022/09/06 06:21:57;;;;;;;0.20;0.20;;;;;;;24.21;72.42;100131.72;5090725;28;20191;-69
2022/09/06 06:24:24;;;;;;;0.27;0.27;;;;;;;24.23;72.13;100127.22;5089027;28;20205;-69
2022/09/06 06:26:51;;;;;;;0.27;0.27;;;;;;;24.42;71.48;100132.72;5090741;28;20693;-69
2022/09/06 06:29:18;;;;;;;0.20;0.20;;;;;;;24.44;71.79;100130.81;5087881;28;20572;-69
2022/09/06 06:31:46;;;;;;;0.20;0.20;;;;;;;24.41;71.43;100134.50;5090044;28;20206;-69
2022/09/06 06:34:15;;;;;;;0.20;0.20;;;;;;;24.42;71.09;100132.72;5090611;28;20202;-69
2022/09/06 06:36:43;;;;;;;0.20;0.20;;;;;;;24.46;71.25;100127.13;5091013;28;20191;-69
2022/09/06 06:39:10;;;;;;;0.20;0.20;;;;;;;24.53;71.61;100128.34;5091315;28;20693;-70
2022/09/06 06:41:37;;;;;;;0.20;0.20;;;;;;;24.73;70.71;100121.56;5090479;28;20298;-70
2022/09/06 06:44:05;;;;;;;0.20;0.20;;;;;;;24.94;69.96;100119.09;5091846;28;20199;-70
2022/09/06 06:46:34;;;;;;;0.20;0.20;;;;;;;25.11;67.69;100125.63;5091560;28;20302;-69
2022/09/06 06:49:03;;;;;;;0.20;0.20;;;;;;;25.07;67.33;100123.25;5091320;28;20681;-69
2022/09/06 06:51:32;;;;;;;0.20;0.20;;;;;;;25.16;66.77;100126.13;5090534;28;20203;-69
2022/09/06 06:53:59;;;;;;;0.20;0.20;;;;;;;25.21;67.09;100124.78;5091473;28;20200;-69
2022/09/06 06:56:28;;;;;;;0.20;0.20;;;;;;;25.36;66.40;100109.63;5091885;28;20191;-69
2022/09/06 06:58:57;;;;;;;0.27;0.27;;;;;;;25.55;64.76;100131.69;5091236;28;20211;-69
2022/09/06 07:01:25;;;;;;;0.20;0.20;;;;;;;25.59;67.07;100132.25;5092223;28;20203;-70
2022/09/06 07:03:53;;;;;;;0.20;0.20;;;;;;;25.68;65.91;100130.69;5090609;28;20207;-69
2022/09/06 07:06:23;;;;;;;0.27;0.27;;;;;;;25.78;64.88;100132.47;5090916;28;20207;-69
2022/09/06 07:08:50;;;;;;;0.20;0.20;;;;;;;25.89;65.23;100129.78;5089401;28;20194;-69
2022/09/06 07:11:18;;;;;;;0.20;0.20;;;;;;;26.13;63.49;100123.47;5088464;28;20254;-69
2022/09/06 07:13:45;;;;;;;0.20;0.20;;;;;;;26.26;63.50;100124.13;5090189;28;20625;-68
2022/09/06 07:16:15;;;;;;;0.20;0.20;;;;;;;26.30;63.88;100096.66;5092525;28;20199;-69
2022/09/06 07:18:44;;;;;;;0.10;0.10;;;;;;;26.56;61.43;100124.16;5093491;28;20195;-69
2022/09/06 07:21:13;;;;;;;0.20;0.20;;;;;;;26.65;62.43;100123.41;5093723;28;20687;-70
2022/09/06 07:23:42;;;;;;;0.10;0.10;;;;;;;26.67;63.03;100118.84;5090712;28;20294;-70
2022/09/06 07:26:14;;;;;;;0.20;0.20;;;;;;;26.86;62.39;100126.84;5091188;28;20220;-69
2022/09/06 07:28:41;;;;;;;0.20;0.20;;;;;;;26.89;61.33;100126.59;5091052;28;20203;-69
2022/09/06 07:31:08;;;;;;;0.27;0.27;;;;;;;26.97;60.17;100116.25;5087460;28;20255;-70
2022/09/06 07:33:36;;;;;;;0.20;0.20;;;;;;;27.18;59.65;100121.44;5089783;28;20210;-71
2022/09/06 07:36:04;;;;;;;0.20;0.20;;;;;;;27.26;59.34;100116.34;5089565;28;20236;-70
2022/09/06 07:38:33;;;;;;;0.10;0.10;;;;;;;27.39;59.58;100121.34;5087491;28;20187;-70
2022/09/06 07:41:03;;;;;;;0.20;0.20;;;;;;;27.27;58.41;100109.28;5091177;28;20214;-69
2022/09/06 07:43:30;;;;;;;0.17;0.17;;;;;;;27.36;58.13;100119.00;5090686;28;20206;-70
2022/09/06 07:45:59;;;;;;;0.20;0.20;;;;;;;27.45;59.10;100123.47;5090518;28;20222;-69
2022/09/06 07:48:28;;;;;;;0.20;0.20;;;;;;;27.52;58.74;100119.31;5089745;28;20712;-70
2022/09/06 07:50:55;;;;;;;0.20;0.20;;;;;;;27.51;58.61;100118.50;5090001;28;20205;-70
2022/09/06 07:53:22;;;;;;;0.20;0.20;;;;;;;27.44;60.17;100111.25;5089563;28;20210;-70
2022/09/06 07:55:48;;;;;;;0.10;0.10;;;;;;;27.39;60.54;100113.44;5093306;28;20200;-70
2022/09/06 07:58:16;;;;;;;0.30;0.30;;;;;;;27.36;61.57;100114.56;5094258;28;20203;-69
2022/09/06 08:00:43;;;;;;;0.13;0.13;;;;;;;27.27;58.79;100109.28;5094314;28;20214;-70
2022/09/06 08:03:10;;;;;;;0.10;0.10;;;;;;;27.33;58.47;100112.19;5093023;28;20651;-68
2022/09/06 08:05:37;;;;;;;0.10;0.10;;;;;;;27.45;59.44;100108.50;5088638;28;20203;-69
2022/09/06 08:08:03;;;;;;;0.20;0.20;;;;;;;27.54;58.41;100106.84;5090511;28;20260;-71
2022/09/06 08:10:30;;;;;;;0.10;0.10;;;;;;;27.66;57.49;100105.72;5085331;28;20206;-74
2022/09/06 08:12:57;;;;;;;0.10;0.10;;;;;;;27.80;55.83;100109.78;5091523;28;20207;-68
2022/09/06 08:15:28;;;;;;;0.27;0.27;;;;;;;27.98;55.53;100108.91;5092625;28;20204;-68
2022/09/06 08:17:55;;;;;;;0.10;0.10;;;;;;;27.27;58.26;100101.38;5092473;28;20290;-68
2022/09/06 08:20:22;;;;;;;0.10;0.10;;;;;;;27.54;58.06;100104.22;5092525;28;20203;-68
2022/09/06 08:22:49;;;;;;;0.10;0.10;;;;;;;27.79;56.89;100101.03;5092129;28;20210;-68
2022/09/06 08:25:16;;;;;;;0.20;0.20;;;;;;;27.76;59.15;100092.56;5082856;28;20588;-69
2022/09/06 08:27:43;;;;;;;0.10;0.10;;;;;;;27.76;58.29;100100.47;5084629;28;20215;-68
2022/09/06 08:30:11;;;;;;;0.10;0.10;;;;;;;27.94;55.08;100083.84;5089905;28;20203;-69
2022/09/06 08:32:41;;;;;;;0.20;0.20;;;;;;;27.90;53.86;100086.88;5092214;28;20203;-68
2022/09/06 08:35:09;;;;;;;0.20;0.20;;;;;;;28.01;55.21;100084.13;5092078;28;20237;-69
2022/09/06 08:37:36;;;;;;;0.10;0.10;;;;;;;27.66;55.63;100078.59;5092634;28;20203;-68
2022/09/06 08:40:03;;;;;;;0.20;0.20;;;;;;;27.72;54.98;100073.59;5090227;28;20209;-69
2022/09/06 08:42:31;;;;;;;0.20;0.20;;;;;;;27.96;54.34;100068.72;5091965;28;20630;-68
2022/09/06 08:44:59;;;;;;;0.20;0.20;;;;;;;27.84;54.47;100067.19;5090027;28;20260;-68
2022/09/06 08:47:26;;;;;;;0.20;0.20;;;;;;;27.58;55.13;100064.28;5091849;28;20215;-69
2022/09/06 08:49:56;;;;;;;0.20;0.20;;;;;;;27.56;56.83;100062.78;5092810;28;20200;-68
2022/09/06 08:52:46;;;;;;;0.20;0.20;;;;;;;27.74;57.39;100065.53;5091542;28;20206;-69
2022/09/06 08:55:32;;;;;;;0.10;0.10;;;;;;;27.86;56.99;100065.25;5091857;28;20199;-69
2022/09/06 08:58:13;;;;;;;0.20;0.20;;;;;;;27.86;57.75;100059.13;5092014;28;20204;-68
2022/09/06 09:00:42;;;;;;;0.10;0.10;;;;;;;27.82;56.74;100053.31;5088253;28;20294;-68
2022/09/06 09:03:11;;;;;;;0.10;0.10;;;;;;;27.89;56.54;100054.41;5092529;28;20650;-68
2022/09/06 09:05:42;;;;;;;0.10;0.10;;;;;;;27.52;57.32;100056.13;5090262;28;20256;-68
2022/09/06 09:08:19;;;;;;;0.10;0.10;;;;;;;27.48;57.75;100054.72;5087315;28;20222;-70
2022/09/06 09:10:49;;;;;;;0.10;0.10;;;;;;;27.55;58.48;100046.13;5090151;28;20283;-68
2022/09/06 09:13:25;;;;;;;0.20;0.20;;;;;;;27.76;57.28;100043.34;5089675;28;20257;-68
2022/09/06 09:15:53;;;;;;;0.20;0.20;;;;;;;27.86;58.40;100038.06;5089315;28;20624;-69
2022/09/06 09:18:24;;;;;;;0.10;0.10;;;;;;;27.81;56.73;100041.13;5093036;28;20578;-73
2022/09/06 09:20:53;;;;;;;0.10;0.10;;;;;;;27.37;57.05;100042.47;5089866;28;20211;-73
2022/09/06 09:23:20;;;;;;;0.20;0.20;;;;;;;27.63;58.75;100032.25;5090250;28;20299;-73
2022/09/06 09:25:48;;;;;;;0.20;0.20;;;;;;;27.65;56.88;100035.59;5091045;28;20203;-72
2022/09/06 09:28:19;;;;;;;0.13;0.13;;;;;;;27.87;56.59;100030.03;5088925;28;20235;-72
2022/09/06 09:30:50;;;;;;;0.10;0.10;;;;;;;27.78;55.60;100014.22;5091281;28;20676;-73
2022/09/06 09:33:25;;;;;;;0.10;0.10;;;;;;;27.34;56.17;100005.03;5089020;28;20705;-73
2022/09/06 09:35:54;;;;;;;0.10;0.10;;;;;;;27.36;58.73;100011.03;5090669;28;20202;-73
2022/09/06 09:38:24;;;;;;;0.10;0.10;;;;;;;27.43;55.76;100010.34;5093551;28;20252;-73
2022/09/06 09:40:53;;;;;;;0.10;0.10;;;;;;;27.54;54.52;100012.00;5085871;28;20211;-73
2022/09/06 09:43:22;;;;;;;0.20;0.20;;;;;;;27.31;55.57;100005.31;5090843;28;20222;-73
2022/09/06 09:46:13;;;;;;;0.20;0.20;;;;;;;27.66;54.70;100005.63;5093172;28;20191;-73
2022/09/06 09:48:41;;;;;;;0.13;0.13;;;;;;;27.72;54.31;99998.97;5086043;28;20248;-72
2022/09/06 09:51:23;;;;;;;0.10;0.10;;;;;;;27.69;55.66;100000.06;5090494;28;20232;-72
2022/09/06 09:53:53;;;;;;;0.20;0.20;;;;;;;27.62;53.74;99999.00;5087247;28;20203;-72
2022/09/06 09:56:29;;;;;;;1.40;1.30;;;;;;;27.63;55.09;99995.38;5089646;28;20586;-73
2022/09/06 09:58:58;;;;;;;0.10;0.10;;;;;;;27.76;56.56;99982.72;5088574;28;20199;-72
2022/09/06 10:01:28;;;;;;;0.20;0.20;;;;;;;27.99;55.81;99988.50;5087170;28;20207;-72
2022/09/06 10:04:04;;;;;;;0.10;0.10;;;;;;;27.82;53.17;99995.34;5087801;28;20211;-71
2022/09/06 10:06:33;;;;;;;0.20;0.20;;;;;;;27.99;55.47;99985.88;5088394;28;20230;-72
2022/09/06 10:09:13;;;;;;;0.10;0.10;;;;;;;28.24;55.35;99989.72;5088794;28;20200;-73
2022/09/06 10:11:48;;;;;;;0.10;0.10;;;;;;;28.17;51.94;99979.72;5090090;28;20223;-72
2022/09/06 10:14:27;;;;;;;0.20;0.20;;;;;;;28.25;54.97;99978.19;5086073;28;20211;-73
2022/09/06 10:16:54;;;;;;;0.20;0.20;;;;;;;28.31;52.79;99978.44;5087609;28;20235;-72
2022/09/06 10:19:42;;;;;;;0.10;0.10;;;;;;;28.44;51.85;99975.47;5087006;28;20204;-72
2022/09/06 10:22:26;;;;;;;0.20;0.20;;;;;;;28.56;51.53;99974.31;5089939;28;20211;-72
2022/09/06 10:25:21;;;;;;;0.20;0.20;;;;;;;28.26;50.72;99979.84;5090434;28;20210;-73
2022/09/06 10:28:28;;;;;;;0.13;0.13;;;;;;;28.30;52.64;99968.06;5090490;28;20323;-69
2022/09/06 10:31:22;;;;;;;0.10;0.10;;;;;;;28.52;50.73;99965.03;5068365;28;20659;-72
2022/09/06 10:34:03;;;;;;;0.13;0.13;;;;;;;28.70;48.67;99965.94;5090503;28;20632;-72
2022/09/06 10:36:34;;;;;;;0.20;0.20;;;;;;;28.58;49.76;99956.53;5089076;28;20264;-74
2022/09/06 10:39:12;;;;;;;0.20;0.20;;;;;;;28.49;50.17;99957.41;5087076;28;20195;-72
2022/09/06 10:41:54;;;;;;;0.20;0.20;;;;;;;28.28;50.41;99944.44;5088360;28;20570;-72
2022/09/06 10:44:41;;;;;;;0.17;0.17;;;;;;;28.24;52.80;99937.81;5088154;28;20575;-72
2022/09/06 10:47:11;;;;;;;0.20;0.20;;;;;;;28.32;52.38;99939.72;5088205;28;20215;-73
2022/09/06 10:49:40;;;;;;;0.10;0.10;;;;;;;28.32;51.77;99942.34;5083085;28;20208;-73
2022/09/06 10:52:11;;;;;;;0.10;0.10;;;;;;;28.24;52.38;99939.63;5082279;28;20214;-72
2022/09/06 10:54:45;;;;;;;0.10;0.10;;;;;;;28.15;51.83;99943.94;5084673;28;20618;-72
2022/09/06 10:57:18;;;;;;;0.20;0.20;;;;;;;28.02;52.64;99933.69;5088685;28;20248;-71
2022/09/06 10:59:49;;;;;;;0.10;0.10;;;;;;;28.31;50.06;99936.25;5084729;28;20208;-72
2022/09/06 11:02:31;;;;;;;0.10;0.10;;;;;;;28.46;54.00;99932.16;5088448;28;20206;-73
2022/09/06 11:05:03;;;;;;;0.10;0.10;;;;;;;28.39;51.55;99922.34;5086702;28;20215;-72
2022/09/06 11:07:33;;;;;;;0.20;0.20;;;;;;;28.38;51.09;99918.03;5088896;28;20219;-71
2022/09/06 11:10:08;;;;;;;0.10;0.10;;;;;;;28.53;50.07;99927.13;5086996;28;20235;-72
2022/09/06 11:12:44;;;;;;;0.10;0.10;;;;;;;28.51;49.95;99929.06;5087169;28;20226;-71
2022/09/06 11:15:14;;;;;;;0.20;0.20;;;;;;;28.60;50.07;99928.16;5085434;28;20199;-72
2022/09/06 11:17:46;;;;;;;0.10;0.10;;;;;;;28.62;50.09;99918.31;5087625;28;20195;-73
2022/09/06 11:20:18;;;;;;;0.10;0.10;;;;;;;28.60;51.25;99880.69;5089267;28;20222;-74
2022/09/06 11:23:06;;;;;;;0.10;0.10;;;;;;;28.75;49.72;99910.06;5089453;28;20575;-71
2022/09/06 11:26:04;;;;;;;0.10;0.10;;;;;;;28.72;50.45;99910.38;5074579;28;20211;-72
2022/09/06 11:28:37;;;;;;;0.13;0.13;;;;;;;28.67;50.91;99913.44;5090306;28;20214;-71
2022/09/06 11:31:05;;;;;;;0.10;0.10;;;;;;;28.75;50.08;99910.06;5092409;28;20203;-71
2022/09/06 11:33:38;;;;;;;0.10;0.10;;;;;;;28.85;49.81;99898.47;5090587;28;20665;-72
2022/09/06 11:36:30;;;;;;;0.20;0.20;;;;;;;28.75;47.52;99903.00;5093860;28;20195;-70
2022/09/06 11:39:00;;;;;;;0.10;0.10;;;;;;;28.45;47.56;99900.66;5087796;28;20207;-71
2022/09/06 11:41:31;;;;;;;0.20;0.20;;;;;;;28.54;50.87;99881.28;5092931;28;20207;-71